createdAt,value
2023-05-12T00:02:15.097Z,9.70
2023-05-12T00:04:59.989Z,9.76
2023-05-12T00:07:44.929Z,9.81
2023-05-12T00:10:29.941Z,9.84
2023-05-12T00:13:15.076Z,9.85
2023-05-12T00:15:59.966Z,9.86
2023-05-12T00:18:45.018Z,9.87
2023-05-12T00:21:29.981Z,9.88
2023-05-12T00:24:14.941Z,9.81
2023-05-12T00:27:00.179Z,9.60
2023-05-12T00:29:45.204Z,9.55
2023-05-12T00:32:30.459Z,9.43
2023-05-12T00:35:15.451Z,9.47
2023-05-12T00:38:00.489Z,9.41
2023-05-12T00:40:45.432Z,9.36
2023-05-12T00:43:30.391Z,9.32
2023-05-12T00:46:15.497Z,9.26
2023-05-12T00:49:00.433Z,9.22
2023-05-12T00:51:45.471Z,9.15
2023-05-12T00:54:30.458Z,9.07
2023-05-12T00:57:15.605Z,9.03
2023-05-12T01:00:00.535Z,8.99
2023-05-12T01:02:45.634Z,8.99
2023-05-12T01:05:30.470Z,8.99
2023-05-12T01:08:15.612Z,9.08
2023-05-12T01:11:00.694Z,9.19
2023-05-12T01:13:45.643Z,9.20
2023-05-12T01:16:30.772Z,9.26
2023-05-12T01:19:15.728Z,9.23
2023-05-12T01:22:00.910Z,9.17
2023-05-12T01:24:45.778Z,9.10
2023-05-12T01:27:30.789Z,9.05
2023-05-12T01:30:15.799Z,8.95
2023-05-12T01:33:00.870Z,8.89
2023-05-12T01:35:46.008Z,8.89
2023-05-12T01:38:30.958Z,8.86
2023-05-12T01:41:15.932Z,8.80
2023-05-12T01:44:00.874Z,8.73
2023-05-12T01:46:45.855Z,8.70
2023-05-12T01:49:30.768Z,8.76
2023-05-12T01:52:15.776Z,8.71
2023-05-12T01:55:00.898Z,8.64
2023-05-12T01:57:45.893Z,8.62
2023-05-12T02:00:30.858Z,8.60
2023-05-12T02:03:15.885Z,8.64
2023-05-12T02:06:00.906Z,8.65
2023-05-12T02:08:45.832Z,8.79
2023-05-12T02:11:30.965Z,8.84
2023-05-12T02:14:16.212Z,8.89
2023-05-12T02:17:00.942Z,8.87
2023-05-12T02:19:46.064Z,8.75
2023-05-12T02:22:30.951Z,8.72
2023-05-12T02:25:16.094Z,8.63
2023-05-12T02:28:01.042Z,8.65
2023-05-12T02:30:46.105Z,8.64
2023-05-12T02:33:31.069Z,8.64
2023-05-12T02:36:16.124Z,8.59
2023-05-12T02:39:01.178Z,8.58
2023-05-12T02:41:46.220Z,8.58
2023-05-12T02:44:31.421Z,8.59
2023-05-12T02:47:16.454Z,8.59
2023-05-12T02:50:01.612Z,8.57
2023-05-12T02:52:46.522Z,8.50
2023-05-12T02:55:31.713Z,8.52
2023-05-12T02:58:16.745Z,8.48
2023-05-12T03:01:10.208Z,8.44
2023-05-12T03:03:56.217Z,8.45
2023-05-12T03:06:41.433Z,8.46
2023-05-12T03:09:26.294Z,8.44
2023-05-12T03:12:11.322Z,8.48
2023-05-12T03:14:56.319Z,8.58
2023-05-12T03:17:41.538Z,8.70
2023-05-12T03:20:26.580Z,8.84
2023-05-12T03:23:11.478Z,8.88
2023-05-12T03:25:56.488Z,8.97
2023-05-12T03:28:41.329Z,8.96
2023-05-12T03:31:26.435Z,8.89
2023-05-12T03:34:11.383Z,8.84
2023-05-12T03:36:56.431Z,8.85
2023-05-12T03:39:41.432Z,8.91
2023-05-12T03:42:26.349Z,8.94
2023-05-12T03:45:11.343Z,9.02
2023-05-12T03:47:56.292Z,9.06
2023-05-12T03:50:41.473Z,9.07
2023-05-12T03:53:26.343Z,9.07
2023-05-12T03:56:11.371Z,9.08
2023-05-12T03:58:56.414Z,9.10
2023-05-12T04:01:41.614Z,9.11
2023-05-12T04:04:26.753Z,9.10
2023-05-12T04:07:11.746Z,9.08
2023-05-12T04:09:56.860Z,9.03
2023-05-12T04:12:41.772Z,9.04
2023-05-12T04:15:26.885Z,9.07
2023-05-12T04:18:11.834Z,9.05
2023-05-12T04:20:56.965Z,9.03
2023-05-12T04:23:42.109Z,8.98
2023-05-12T04:26:27.076Z,8.89
2023-05-12T04:29:12.199Z,8.75
2023-05-12T04:31:57.162Z,8.64
2023-05-12T04:34:42.380Z,8.54
2023-05-12T04:37:27.366Z,8.44
2023-05-12T04:40:12.437Z,8.35
2023-05-12T04:42:57.216Z,8.44
2023-05-12T04:45:42.334Z,8.57
2023-05-12T04:48:27.196Z,8.70
2023-05-12T04:51:12.354Z,8.85
2023-05-12T04:53:57.467Z,9.00
2023-05-12T04:56:42.497Z,9.10
2023-05-12T04:59:27.476Z,9.14
2023-05-12T05:02:12.369Z,9.25
2023-05-12T05:04:57.406Z,9.36
2023-05-12T05:07:42.357Z,9.47
2023-05-12T05:10:27.300Z,9.55
2023-05-12T05:13:12.458Z,9.63
2023-05-12T05:15:57.435Z,9.70
2023-05-12T05:18:42.533Z,9.79
2023-05-12T05:21:27.387Z,9.85
2023-05-12T05:24:12.567Z,9.92
2023-05-12T05:26:57.540Z,10.02
2023-05-12T05:29:42.482Z,10.08
2023-05-12T05:32:27.435Z,10.15
2023-05-12T05:35:12.346Z,10.18
2023-05-12T05:37:57.368Z,10.12
2023-05-12T05:40:53.095Z,9.96
2023-05-12T05:43:38.772Z,9.75
2023-05-12T05:46:23.842Z,9.56
2023-05-12T05:49:09.020Z,9.43
2023-05-12T05:51:54.003Z,9.46
2023-05-12T05:54:39.080Z,9.55
2023-05-12T05:57:23.946Z,9.68
2023-05-12T06:00:09.084Z,9.75
2023-05-12T06:02:54.081Z,9.89
2023-05-12T06:05:39.161Z,10.00
2023-05-12T06:08:24.188Z,10.09
2023-05-12T06:11:09.159Z,10.20
2023-05-12T06:13:54.152Z,10.32
2023-05-12T06:16:39.235Z,10.40
2023-05-12T06:19:23.992Z,10.55
2023-05-12T06:22:08.955Z,10.70
2023-05-12T06:24:54.159Z,10.90
2023-05-12T06:27:39.173Z,11.08
2023-05-12T06:30:24.184Z,11.29
2023-05-12T06:33:09.366Z,11.51
2023-05-12T06:35:54.350Z,11.94
2023-05-12T06:38:39.405Z,15.53
2023-05-12T06:41:24.322Z,17.45
2023-05-12T06:44:09.229Z,18.95
2023-05-12T06:46:54.299Z,21.27
2023-05-12T06:49:39.403Z,20.41
2023-05-12T06:52:24.370Z,19.96
2023-05-12T06:55:09.435Z,21.59
2023-05-12T06:57:54.569Z,22.24
2023-05-12T07:00:39.589Z,23.37
2023-05-12T07:03:24.610Z,22.51
2023-05-12T07:06:09.591Z,20.08
2023-05-12T07:08:54.675Z,18.42
2023-05-12T07:11:39.692Z,17.25
2023-05-12T07:14:24.691Z,16.67
2023-05-12T07:17:09.631Z,15.34
2023-05-12T07:19:54.735Z,14.50
2023-05-12T07:22:39.858Z,13.61
2023-05-12T07:25:24.893Z,12.98
2023-05-12T07:28:09.775Z,12.68
2023-05-12T07:30:54.798Z,12.26
2023-05-12T07:33:39.769Z,12.42
2023-05-12T07:36:24.660Z,12.47
2023-05-12T07:39:09.594Z,12.52
2023-05-12T07:41:54.836Z,12.40
2023-05-12T07:44:39.856Z,12.27
2023-05-12T07:47:24.917Z,12.41
2023-05-12T07:50:09.886Z,12.42
2023-05-12T07:52:54.843Z,12.87
2023-05-12T07:55:39.861Z,12.68
2023-05-12T07:58:24.872Z,12.45
2023-05-12T08:01:09.838Z,12.36
2023-05-12T08:03:54.964Z,12.77
2023-05-12T08:06:39.800Z,12.91
2023-05-12T08:09:24.806Z,13.07
2023-05-12T08:12:09.942Z,13.25
2023-05-12T08:14:54.822Z,13.03
2023-05-12T08:17:39.888Z,12.89
2023-05-12T08:20:24.826Z,12.82
2023-05-12T08:23:09.746Z,13.14
2023-05-12T08:25:54.845Z,13.63
2023-05-12T08:28:39.725Z,14.17
2023-05-12T08:31:25.038Z,14.33
2023-05-12T08:34:11.151Z,14.26
2023-05-12T08:36:56.130Z,13.86
2023-05-12T08:39:41.019Z,13.54
2023-05-12T08:42:26.011Z,13.30
2023-05-12T08:45:11.000Z,13.07
2023-05-12T08:47:55.993Z,13.05
2023-05-12T08:50:40.968Z,12.89
2023-05-12T08:53:25.960Z,13.03
2023-05-12T08:58:59.104Z,13.55
2023-05-12T09:01:44.071Z,14.01
2023-05-12T09:04:29.173Z,13.73
2023-05-12T09:07:14.039Z,14.08
2023-05-12T09:09:59.208Z,13.80
2023-05-12T09:12:44.121Z,14.06
2023-05-12T09:15:29.146Z,14.18
2023-05-12T09:18:14.200Z,14.55
2023-05-12T09:20:59.211Z,14.59
2023-05-12T09:23:44.345Z,14.70
2023-05-12T09:26:29.313Z,14.56
2023-05-12T09:29:24.088Z,14.52
2023-05-12T09:32:15.462Z,15.03
2023-05-12T09:35:00.472Z,14.96
2023-05-12T09:37:45.534Z,15.11
2023-05-12T09:40:30.593Z,14.91
2023-05-12T09:43:15.858Z,14.70
2023-05-12T09:46:00.862Z,14.90
2023-05-12T09:48:47.027Z,14.61
2023-05-12T09:51:31.997Z,14.52
2023-05-12T09:54:16.987Z,14.92
2023-05-12T09:57:01.951Z,14.44
2023-05-12T09:59:46.961Z,13.96
2023-05-12T10:02:32.164Z,13.96
2023-05-12T10:05:17.050Z,13.37
2023-05-12T10:08:02.171Z,13.57
2023-05-12T10:10:47.085Z,13.69
2023-05-12T10:13:32.249Z,14.21
2023-05-12T10:16:17.314Z,14.68
2023-05-12T10:19:02.485Z,14.62
2023-05-12T10:21:47.513Z,14.33
2023-05-12T10:24:32.677Z,14.38
2023-05-12T10:27:17.547Z,14.39
2023-05-12T10:30:02.433Z,14.38
2023-05-12T10:32:47.491Z,14.68
2023-05-12T10:35:32.438Z,14.75
2023-05-12T10:38:17.405Z,14.75
2023-05-12T10:41:02.420Z,14.90
2023-05-12T10:43:47.443Z,14.88
2023-05-12T10:46:32.587Z,14.90
2023-05-12T10:49:17.397Z,14.29
2023-05-12T10:52:02.528Z,14.15
2023-05-12T10:54:47.467Z,13.93
2023-05-12T10:57:32.981Z,13.85
2023-05-12T11:00:18.696Z,13.93
2023-05-12T11:03:09.991Z,14.18
2023-05-12T11:05:55.761Z,14.03
2023-05-12T11:08:42.273Z,14.28
2023-05-12T11:11:27.851Z,14.62
2023-05-12T11:14:13.029Z,14.32
2023-05-12T11:16:58.008Z,14.42
2023-05-12T11:19:42.879Z,14.22
2023-05-12T11:22:28.117Z,14.42
2023-05-12T11:25:13.013Z,14.69
2023-05-12T11:27:58.229Z,14.91
2023-05-12T11:30:43.100Z,14.63
2023-05-12T11:33:28.044Z,14.65
2023-05-12T11:36:12.993Z,14.99
2023-05-12T11:38:58.053Z,14.93
2023-05-12T11:41:42.963Z,15.04
2023-05-12T11:44:28.021Z,15.42
2023-05-12T11:47:13.109Z,15.67
2023-05-12T11:49:57.857Z,15.61
2023-05-12T11:52:43.039Z,15.71
2023-05-12T11:55:28.008Z,15.74
2023-05-12T11:58:13.180Z,15.73
2023-05-12T12:00:58.175Z,15.86
2023-05-12T12:03:43.337Z,15.51
2023-05-12T12:06:28.489Z,15.49
2023-05-12T12:09:13.478Z,15.21
2023-05-12T12:12:01.616Z,14.91
2023-05-12T12:14:46.508Z,15.02
2023-05-12T12:17:31.711Z,15.01
2023-05-12T12:20:16.753Z,15.09
2023-05-12T12:23:01.612Z,14.76
2023-05-12T12:25:46.785Z,14.74
2023-05-12T12:28:31.835Z,14.84
2023-05-12T12:31:16.871Z,14.79
2023-05-12T12:34:01.743Z,14.76
2023-05-12T12:36:46.640Z,14.64
2023-05-12T12:39:31.493Z,14.49
2023-05-12T12:42:16.477Z,14.32
2023-05-12T12:45:01.417Z,14.26
2023-05-12T12:47:46.482Z,14.29
2023-05-12T12:50:31.529Z,14.29
2023-05-12T12:53:16.556Z,14.45
2023-05-12T12:56:01.636Z,14.51
2023-05-12T12:58:46.569Z,14.43
2023-05-12T13:01:31.622Z,14.40
2023-05-12T13:04:16.602Z,14.43
2023-05-12T13:07:01.635Z,14.64
2023-05-12T13:09:46.605Z,14.86
2023-05-12T13:12:31.576Z,15.02
2023-05-12T13:15:18.568Z,15.27
2023-05-12T13:18:04.103Z,15.40
2023-05-12T13:20:49.089Z,15.62
2023-05-12T13:23:34.087Z,15.78
2023-05-12T13:26:19.004Z,15.78
2023-05-12T13:29:04.088Z,16.02
2023-05-12T13:31:49.038Z,16.28
2023-05-12T13:34:34.138Z,16.57
2023-05-12T13:37:19.130Z,16.88
2023-05-12T13:40:04.339Z,17.07
2023-05-12T13:42:49.321Z,17.23
2023-05-12T13:45:34.233Z,17.26
2023-05-12T13:48:19.401Z,17.31
2023-05-12T13:51:04.275Z,17.41
2023-05-12T13:53:49.317Z,17.44
2023-05-12T13:56:34.299Z,17.56
2023-05-12T13:59:19.288Z,17.52
2023-05-12T14:02:04.452Z,17.45
2023-05-12T14:04:49.298Z,17.11
2023-05-12T14:07:34.322Z,17.13
2023-05-12T14:10:19.256Z,17.15
2023-05-12T14:13:04.588Z,17.20
2023-05-12T14:15:50.458Z,16.98
2023-05-12T14:18:35.365Z,16.94
2023-05-12T14:21:20.252Z,16.38
2023-05-12T14:24:05.118Z,16.14
2023-05-12T14:26:50.285Z,16.26
2023-05-12T14:29:35.160Z,16.35
2023-05-12T14:32:20.324Z,16.53
2023-05-12T14:35:06.621Z,16.61
2023-05-12T14:37:53.358Z,16.57
2023-05-12T14:40:40.205Z,16.64
2023-05-12T14:43:25.464Z,16.47
2023-05-12T14:46:10.630Z,16.59
2023-05-12T14:48:55.649Z,16.71
2023-05-12T14:51:40.859Z,16.75
2023-05-12T14:54:26.202Z,16.90
2023-05-12T14:57:11.377Z,16.82
2023-05-12T14:59:56.440Z,16.92
2023-05-12T15:02:41.579Z,16.71
2023-05-12T15:05:41.194Z,16.61
2023-05-12T15:08:31.147Z,16.44
2023-05-12T15:11:16.151Z,16.17
2023-05-12T15:14:01.103Z,16.00
2023-05-12T15:16:46.076Z,15.65
2023-05-12T15:19:30.948Z,15.44
2023-05-12T15:22:15.936Z,15.34
2023-05-12T15:25:01.018Z,15.45
2023-05-12T15:27:45.916Z,15.53
2023-05-12T15:30:38.191Z,15.62
2023-05-12T15:33:23.029Z,15.71
2023-05-12T15:36:08.164Z,15.76
2023-05-12T15:38:53.220Z,15.74
2023-05-12T15:41:38.341Z,15.80
2023-05-12T15:44:23.180Z,15.67
2023-05-12T15:47:08.239Z,15.57
2023-05-12T15:49:53.218Z,15.43
2023-05-12T15:52:38.277Z,15.32
2023-05-12T15:55:23.465Z,15.28
2023-05-12T15:58:08.205Z,15.19
2023-05-12T16:00:53.429Z,15.05
2023-05-12T16:03:38.397Z,14.96
2023-05-12T16:06:23.471Z,14.81
2023-05-12T16:09:08.310Z,14.70
2023-05-12T16:11:53.525Z,14.59
2023-05-12T16:14:38.413Z,14.48
2023-05-12T16:17:23.481Z,14.31
2023-05-12T16:20:08.828Z,14.28
2023-05-12T16:22:53.514Z,14.17
2023-05-12T16:25:38.565Z,14.02
2023-05-12T16:28:23.655Z,13.87
2023-05-12T16:31:08.886Z,13.74
2023-05-12T16:33:53.588Z,13.60
2023-05-12T16:36:38.538Z,13.52
2023-05-12T16:39:23.933Z,13.48
2023-05-12T16:42:08.779Z,13.46
2023-05-12T16:44:53.891Z,13.44
2023-05-12T16:47:38.884Z,13.39
2023-05-12T16:50:23.952Z,13.41
2023-05-12T16:53:09.339Z,13.39
2023-05-12T16:55:54.278Z,13.36
2023-05-12T16:58:39.380Z,13.41
2023-05-12T17:01:25.216Z,13.41
2023-05-12T17:04:10.239Z,13.39
2023-05-12T17:06:55.239Z,13.36
2023-05-12T17:09:40.312Z,13.25
2023-05-12T17:12:25.323Z,13.17
2023-05-12T17:15:10.393Z,13.08
2023-05-12T17:17:55.343Z,13.14
2023-05-12T17:20:40.304Z,13.12
2023-05-12T17:23:25.453Z,13.10
2023-05-12T17:26:10.428Z,13.15
2023-05-12T17:28:55.550Z,13.20
2023-05-12T17:31:40.691Z,13.20
2023-05-12T17:34:25.589Z,13.23
2023-05-12T17:37:10.559Z,13.27
2023-05-12T17:39:55.648Z,13.29
2023-05-12T17:42:40.697Z,13.22
2023-05-12T17:45:25.672Z,13.27
2023-05-12T17:48:10.833Z,13.17
2023-05-12T17:50:55.815Z,13.09
2023-05-12T17:53:40.999Z,13.00
2023-05-12T17:56:25.940Z,12.92
2023-05-12T17:59:11.061Z,12.86
2023-05-12T18:01:56.090Z,12.81
2023-05-12T18:04:40.968Z,12.84
2023-05-12T18:07:26.114Z,12.59
2023-05-12T18:10:11.038Z,12.48
2023-05-12T18:12:56.073Z,12.42
2023-05-12T18:15:40.959Z,12.40
2023-05-12T18:18:26.186Z,12.39
2023-05-12T18:21:10.977Z,12.35
2023-05-12T18:23:56.154Z,12.32
2023-05-12T18:26:41.102Z,12.31
2023-05-12T18:29:25.966Z,12.26
2023-05-12T18:32:10.949Z,12.22
2023-05-12T18:34:55.908Z,12.16
2023-05-12T18:37:40.905Z,12.07
2023-05-12T18:40:25.808Z,12.02
2023-05-12T18:43:10.800Z,12.09
2023-05-12T18:45:55.822Z,12.11
2023-05-12T18:48:40.776Z,12.11
2023-05-12T18:51:25.736Z,12.16
2023-05-12T18:54:10.721Z,12.20
2023-05-12T18:56:55.780Z,12.23
2023-05-12T18:59:40.640Z,12.20
2023-05-12T19:02:25.733Z,12.19
2023-05-12T19:05:10.607Z,12.19
2023-05-12T19:07:55.726Z,12.21
2023-05-12T19:10:40.778Z,12.10
2023-05-12T19:13:25.659Z,12.08
2023-05-12T19:16:10.808Z,12.12
2023-05-12T19:18:55.744Z,12.11
2023-05-12T19:21:40.894Z,12.12
2023-05-12T19:24:25.870Z,12.08
2023-05-12T19:27:11.011Z,12.08
2023-05-12T19:29:55.860Z,12.01
2023-05-12T19:32:40.980Z,11.99
2023-05-12T19:35:25.895Z,11.99
2023-05-12T19:38:10.979Z,11.91
2023-05-12T19:40:56.046Z,11.86
2023-05-12T19:43:40.904Z,11.70
2023-05-12T19:46:25.909Z,11.59
2023-05-12T19:49:10.846Z,11.51
2023-05-12T19:51:56.020Z,11.43
2023-05-12T19:54:40.997Z,11.54
2023-05-12T19:57:26.080Z,11.58
2023-05-12T20:00:11.213Z,11.62
2023-05-12T20:02:56.187Z,11.64
2023-05-12T20:05:41.264Z,11.64
2023-05-12T20:08:26.108Z,11.62
2023-05-12T20:11:11.122Z,11.59
2023-05-12T20:13:56.019Z,11.62
2023-05-12T20:16:41.217Z,11.67
2023-05-12T20:19:26.102Z,11.69
2023-05-12T20:22:11.098Z,11.69
2023-05-12T20:24:56.240Z,11.72
2023-05-12T20:27:41.086Z,11.77
2023-05-12T20:30:26.197Z,11.78
2023-05-12T20:33:11.226Z,11.85
2023-05-12T20:35:56.276Z,11.83
2023-05-12T20:38:41.256Z,11.82
2023-05-12T20:41:26.277Z,11.83
2023-05-12T20:44:11.385Z,11.86
2023-05-12T20:46:56.488Z,11.90
2023-05-12T20:49:41.611Z,11.96
2023-05-12T20:52:26.486Z,11.96
2023-05-12T20:55:11.590Z,11.94
2023-05-12T20:57:56.552Z,11.90
2023-05-12T21:00:41.609Z,11.82
2023-05-12T21:03:26.635Z,11.81
2023-05-12T21:06:11.639Z,11.80
2023-05-12T21:08:56.481Z,11.85
2023-05-12T21:11:41.405Z,11.83
2023-05-12T21:14:26.547Z,11.83
2023-05-12T21:17:11.454Z,11.88
2023-05-12T21:19:56.356Z,11.88
2023-05-12T21:22:41.265Z,11.76
2023-05-12T21:25:26.263Z,11.73
2023-05-12T21:28:11.299Z,11.64
2023-05-12T21:30:56.382Z,11.55
2023-05-12T21:33:41.460Z,11.50
2023-05-12T21:36:26.380Z,11.43
2023-05-12T21:39:11.546Z,11.39
2023-05-12T21:41:56.554Z,11.37
2023-05-12T21:44:41.554Z,11.32
2023-05-12T21:47:26.595Z,11.32
2023-05-12T21:50:11.442Z,11.23
2023-05-12T21:52:56.514Z,11.19
2023-05-12T21:55:41.513Z,11.03
2023-05-12T21:58:26.675Z,10.89
2023-05-12T22:01:11.602Z,10.77
2023-05-12T22:03:56.570Z,10.74
2023-05-12T22:06:41.477Z,10.76
2023-05-12T22:09:27.249Z,10.88
2023-05-12T22:12:13.316Z,11.00
2023-05-12T22:14:58.251Z,11.11
2023-05-12T22:17:43.427Z,11.24
2023-05-12T22:20:28.336Z,11.28
2023-05-12T22:23:13.560Z,11.30
2023-05-12T22:25:58.344Z,11.31
2023-05-12T22:28:43.378Z,11.28
2023-05-12T22:31:28.222Z,11.22
2023-05-12T22:34:13.206Z,11.25
2023-05-12T22:36:58.310Z,11.23
2023-05-12T22:39:43.324Z,11.19
2023-05-12T22:42:28.455Z,11.18
2023-05-12T22:45:13.482Z,11.18
2023-05-12T22:47:58.634Z,11.17
2023-05-12T22:50:43.551Z,11.13
2023-05-12T22:53:28.646Z,11.10
2023-05-12T22:56:13.639Z,11.06
2023-05-12T22:58:58.719Z,11.01
2023-05-12T23:01:43.652Z,11.00
2023-05-12T23:04:28.752Z,10.95
2023-05-12T23:07:13.671Z,10.95
2023-05-12T23:09:58.546Z,10.92
2023-05-12T23:12:43.656Z,10.91
2023-05-12T23:15:28.774Z,10.84
2023-05-12T23:18:13.839Z,10.79
2023-05-12T23:20:58.875Z,10.82
2023-05-12T23:23:43.951Z,10.82
2023-05-12T23:26:29.057Z,10.76
2023-05-12T23:29:14.122Z,10.75
2023-05-12T23:31:59.260Z,10.70
2023-05-12T23:34:44.093Z,10.74
2023-05-12T23:37:29.110Z,10.73
2023-05-12T23:40:14.239Z,10.68
2023-05-12T23:42:59.197Z,10.67
2023-05-12T23:45:44.076Z,10.67
2023-05-12T23:48:28.916Z,10.61
2023-05-12T23:51:13.840Z,10.56
2023-05-12T23:53:58.762Z,10.59
2023-05-12T23:56:43.718Z,10.58
2023-05-12T23:59:28.608Z,10.55
